sensor_id;sensor_type;location;lat;lon;timestamp;temperature;humidity
13684;DHT22;6914;53.552;9.908;2022-12-07T00:01:43;2.90;99.90
13684;DHT22;6914;53.552;9.908;2022-12-07T00:04:12;2.80;99.90
13684;DHT22;6914;53.552;9.908;2022-12-07T00:06:41;3.10;99.90
13684;DHT22;6914;53.552;9.908;2022-12-07T00:09:11;2.80;99.90
13684;DHT22;6914;53.552;9.908;2022-12-07T00:11:38;3.00;99.90
13684;DHT22;6914;53.552;9.908;2022-12-07T00:14:07;2.80;99.90
13684;DHT22;6914;53.552;9.908;2022-12-07T00:16:38;2.80;99.90
13684;DHT22;6914;53.552;9.908;2022-12-07T00:19:05;2.80;99.90
13684;DHT22;6914;53.552;9.908;2022-12-07T00:21:33;2.70;99.90
13684;DHT22;6914;53.552;9.908;2022-12-07T00:24:02;2.70;99.90
13684;DHT22;6914;53.552;9.908;2022-12-07T00:26:30;2.80;99.90
13684;DHT22;6914;53.552;9.908;2022-12-07T00:28:59;2.90;99.90
13684;DHT22;6914;53.552;9.908;2022-12-07T00:31:28;2.90;99.90
13684;DHT22;6914;53.552;9.908;2022-12-07T00:33:57;4.10;99.90
13684;DHT22;6914;53.552;9.908;2022-12-07T00:36:25;2.90;99.90
13684;DHT22;6914;53.552;9.908;2022-12-07T00:38:52;2.90;99.90
13684;DHT22;6914;53.552;9.908;2022-12-07T00:41:21;2.60;99.90
13684;DHT22;6914;53.552;9.908;2022-12-07T00:43:49;2.90;99.90
13684;DHT22;6914;53.552;9.908;2022-12-07T00:46:18;2.90;99.90
13684;DHT22;6914;53.552;9.908;2022-12-07T00:48:46;3.00;99.90
13684;DHT22;6914;53.552;9.908;2022-12-07T00:51:16;3.00;99.90
13684;DHT22;6914;53.552;9.908;2022-12-07T00:53:44;3.00;99.90
13684;DHT22;6914;53.552;9.908;2022-12-07T00:56:13;3.10;99.90
13684;DHT22;6914;53.552;9.908;2022-12-07T00:58:41;3.10;99.90
13684;DHT22;6914;53.552;9.908;2022-12-07T01:01:09;3.10;99.90
13684;DHT22;6914;53.552;9.908;2022-12-07T01:03:37;3.30;99.90
13684;DHT22;6914;53.552;9.908;2022-12-07T01:06:04;3.10;99.90
13684;DHT22;6914;53.552;9.908;2022-12-07T01:08:33;3.10;99.90
13684;DHT22;6914;53.552;9.908;2022-12-07T01:11:01;3.00;99.90
13684;DHT22;6914;53.552;9.908;2022-12-07T01:13:29;2.80;99.90
13684;DHT22;6914;53.552;9.908;2022-12-07T01:15:57;3.00;99.90
13684;DHT22;6914;53.552;9.908;2022-12-07T01:18:26;3.00;99.90
13684;DHT22;6914;53.552;9.908;2022-12-07T01:21:00;3.20;99.90
13684;DHT22;6914;53.552;9.908;2022-12-07T01:23:27;3.00;99.90
13684;DHT22;6914;53.552;9.908;2022-12-07T01:25:57;3.10;99.90
13684;DHT22;6914;53.552;9.908;2022-12-07T01:28:25;3.10;99.90
13684;DHT22;6914;53.552;9.908;2022-12-07T01:31:00;3.10;99.90
13684;DHT22;6914;53.552;9.908;2022-12-07T01:33:28;3.00;99.90
13684;DHT22;6914;53.552;9.908;2022-12-07T01:36:01;3.00;99.90
13684;DHT22;6914;53.552;9.908;2022-12-07T01:38:28;3.10;99.90
13684;DHT22;6914;53.552;9.908;2022-12-07T01:40:58;3.10;99.90
13684;DHT22;6914;53.552;9.908;2022-12-07T01:43:27;3.10;99.90
13684;DHT22;6914;53.552;9.908;2022-12-07T01:45:54;3.00;99.90
13684;DHT22;6914;53.552;9.908;2022-12-07T01:48:24;3.30;99.90
13684;DHT22;6914;53.552;9.908;2022-12-07T01:50:54;3.40;99.90
13684;DHT22;6914;53.552;9.908;2022-12-07T01:53:25;3.10;99.90
13684;DHT22;6914;53.552;9.908;2022-12-07T01:55:54;3.10;99.90
13684;DHT22;6914;53.552;9.908;2022-12-07T01:58:29;3.00;99.90
13684;DHT22;6914;53.552;9.908;2022-12-07T02:00:59;3.00;99.90
13684;DHT22;6914;53.552;9.908;2022-12-07T02:03:42;2.90;99.90
13684;DHT22;6914;53.552;9.908;2022-12-07T02:06:12;3.20;99.90
13684;DHT22;6914;53.552;9.908;2022-12-07T02:08:41;2.80;99.90
13684;DHT22;6914;53.552;9.908;2022-12-07T02:11:09;2.70;99.90
13684;DHT22;6914;53.552;9.908;2022-12-07T02:13:40;2.80;99.90
13684;DHT22;6914;53.552;9.908;2022-12-07T02:16:18;2.20;99.90
13684;DHT22;6914;53.552;9.908;2022-12-07T02:18:56;1.50;99.90
13684;DHT22;6914;53.552;9.908;2022-12-07T02:21:34;2.80;99.90
13684;DHT22;6914;53.552;9.908;2022-12-07T02:24:19;4.70;99.90
13684;DHT22;6914;53.552;9.908;2022-12-07T02:27:17;2.80;99.90
13684;DHT22;6914;53.552;9.908;2022-12-07T02:29:56;2.60;99.90
13684;DHT22;6914;53.552;9.908;2022-12-07T02:32:27;2.20;99.90
13684;DHT22;6914;53.552;9.908;2022-12-07T02:34:58;2.10;99.90
13684;DHT22;6914;53.552;9.908;2022-12-07T02:37:36;1.70;99.90
13684;DHT22;6914;53.552;9.908;2022-12-07T02:40:08;2.60;99.90
13684;DHT22;6914;53.552;9.908;2022-12-07T02:42:38;2.50;99.90
13684;DHT22;6914;53.552;9.908;2022-12-07T02:45:10;2.30;99.90
13684;DHT22;6914;53.552;9.908;2022-12-07T02:47:39;2.60;99.90
13684;DHT22;6914;53.552;9.908;2022-12-07T02:50:08;2.60;99.90
13684;DHT22;6914;53.552;9.908;2022-12-07T02:52:35;2.60;99.90
13684;DHT22;6914;53.552;9.908;2022-12-07T02:55:03;2.80;99.90
13684;DHT22;6914;53.552;9.908;2022-12-07T02:57:51;2.90;99.90
13684;DHT22;6914;53.552;9.908;2022-12-07T03:00:21;2.60;99.90
13684;DHT22;6914;53.552;9.908;2022-12-07T03:02:53;1.40;99.90
13684;DHT22;6914;53.552;9.908;2022-12-07T03:05:43;4.50;99.90
13684;DHT22;6914;53.552;9.908;2022-12-07T03:08:24;2.10;99.90
13684;DHT22;6914;53.552;9.908;2022-12-07T03:10:56;3.90;99.90
13684;DHT22;6914;53.552;9.908;2022-12-07T03:13:29;1.60;99.90
13684;DHT22;6914;53.552;9.908;2022-12-07T03:16:02;2.80;99.90
13684;DHT22;6914;53.552;9.908;2022-12-07T03:18:34;2.50;99.90
13684;DHT22;6914;53.552;9.908;2022-12-07T03:21:06;2.40;99.90
13684;DHT22;6914;53.552;9.908;2022-12-07T03:23:34;2.40;99.90
13684;DHT22;6914;53.552;9.908;2022-12-07T03:26:03;2.40;99.90
13684;DHT22;6914;53.552;9.908;2022-12-07T03:28:33;2.10;99.90
13684;DHT22;6914;53.552;9.908;2022-12-07T03:31:05;2.30;99.90
13684;DHT22;6914;53.552;9.908;2022-12-07T03:33:39;2.10;99.90
13684;DHT22;6914;53.552;9.908;2022-12-07T03:36:10;2.30;99.90
13684;DHT22;6914;53.552;9.908;2022-12-07T03:38:40;2.00;99.90
13684;DHT22;6914;53.552;9.908;2022-12-07T03:41:10;2.20;99.90
13684;DHT22;6914;53.552;9.908;2022-12-07T03:43:40;1.90;99.90
13684;DHT22;6914;53.552;9.908;2022-12-07T03:46:17;2.30;99.90
13684;DHT22;6914;53.552;9.908;2022-12-07T03:48:52;2.40;99.90
13684;DHT22;6914;53.552;9.908;2022-12-07T03:51:24;2.20;99.90
13684;DHT22;6914;53.552;9.908;2022-12-07T03:53:57;1.80;99.90
13684;DHT22;6914;53.552;9.908;2022-12-07T03:56:26;2.10;99.90
13684;DHT22;6914;53.552;9.908;2022-12-07T03:58:54;2.20;99.90
13684;DHT22;6914;53.552;9.908;2022-12-07T04:01:23;2.10;99.90
13684;DHT22;6914;53.552;9.908;2022-12-07T04:03:52;1.80;99.90
13684;DHT22;6914;53.552;9.908;2022-12-07T04:06:18;2.10;99.90
13684;DHT22;6914;53.552;9.908;2022-12-07T04:08:45;2.10;99.90
13684;DHT22;6914;53.552;9.908;2022-12-07T04:11:12;3.50;99.90
13684;DHT22;6914;53.552;9.908;2022-12-07T04:13:39;0.90;99.90
13684;DHT22;6914;53.552;9.908;2022-12-07T04:16:24;1.50;99.90
13684;DHT22;6914;53.552;9.908;2022-12-07T04:18:53;1.70;99.90
13684;DHT22;6914;53.552;9.908;2022-12-07T04:21:20;1.70;99.90
13684;DHT22;6914;53.552;9.908;2022-12-07T04:23:47;2.00;99.90
13684;DHT22;6914;53.552;9.908;2022-12-07T04:26:14;1.90;99.90
13684;DHT22;6914;53.552;9.908;2022-12-07T04:28:40;2.60;99.90
13684;DHT22;6914;53.552;9.908;2022-12-07T04:31:07;2.20;99.90
13684;DHT22;6914;53.552;9.908;2022-12-07T04:33:35;2.00;99.90
13684;DHT22;6914;53.552;9.908;2022-12-07T04:36:03;1.90;99.90
13684;DHT22;6914;53.552;9.908;2022-12-07T04:38:29;2.10;99.90
13684;DHT22;6914;53.552;9.908;2022-12-07T04:40:56;2.00;99.90
13684;DHT22;6914;53.552;9.908;2022-12-07T04:43:23;2.00;99.90
13684;DHT22;6914;53.552;9.908;2022-12-07T04:45:52;2.10;99.90
13684;DHT22;6914;53.552;9.908;2022-12-07T04:48:19;1.80;99.90
13684;DHT22;6914;53.552;9.908;2022-12-07T04:50:49;1.70;99.90
13684;DHT22;6914;53.552;9.908;2022-12-07T04:53:16;2.00;99.90
13684;DHT22;6914;53.552;9.908;2022-12-07T04:55:44;1.90;99.90
13684;DHT22;6914;53.552;9.908;2022-12-07T04:58:10;1.40;99.90
13684;DHT22;6914;53.552;9.908;2022-12-07T05:00:37;1.60;99.90
13684;DHT22;6914;53.552;9.908;2022-12-07T05:03:04;1.30;99.90
13684;DHT22;6914;53.552;9.908;2022-12-07T05:05:31;5.60;99.90
13684;DHT22;6914;53.552;9.908;2022-12-07T05:07:59;2.00;99.90
13684;DHT22;6914;53.552;9.908;2022-12-07T05:10:26;1.60;99.90
13684;DHT22;6914;53.552;9.908;2022-12-07T05:12:53;1.90;99.90
13684;DHT22;6914;53.552;9.908;2022-12-07T05:15:19;2.00;99.90
13684;DHT22;6914;53.552;9.908;2022-12-07T05:17:47;1.70;99.90
13684;DHT22;6914;53.552;9.908;2022-12-07T05:20:14;3.70;99.90
13684;DHT22;6914;53.552;9.908;2022-12-07T05:22:41;1.30;99.90
13684;DHT22;6914;53.552;9.908;2022-12-07T05:25:09;1.90;99.90
13684;DHT22;6914;53.552;9.908;2022-12-07T05:27:36;2.00;99.90
13684;DHT22;6914;53.552;9.908;2022-12-07T05:30:03;1.60;99.90
13684;DHT22;6914;53.552;9.908;2022-12-07T05:32:30;2.30;99.90
13684;DHT22;6914;53.552;9.908;2022-12-07T05:34:57;1.40;99.90
13684;DHT22;6914;53.552;9.908;2022-12-07T05:37:23;0.70;99.90
13684;DHT22;6914;53.552;9.908;2022-12-07T05:39:53;0.60;99.90
13684;DHT22;6914;53.552;9.908;2022-12-07T05:42:21;1.40;99.90
13684;DHT22;6914;53.552;9.908;2022-12-07T05:44:48;1.50;99.90
13684;DHT22;6914;53.552;9.908;2022-12-07T05:47:15;1.50;99.90
13684;DHT22;6914;53.552;9.908;2022-12-07T05:49:42;1.10;99.90
13684;DHT22;6914;53.552;9.908;2022-12-07T05:52:09;2.80;99.90
13684;DHT22;6914;53.552;9.908;2022-12-07T05:54:35;1.10;99.90
13684;DHT22;6914;53.552;9.908;2022-12-07T05:57:02;1.10;99.90
13684;DHT22;6914;53.552;9.908;2022-12-07T05:59:30;1.50;99.90
13684;DHT22;6914;53.552;9.908;2022-12-07T06:01:57;1.50;99.90
13684;DHT22;6914;53.552;9.908;2022-12-07T06:04:26;1.50;99.90
13684;DHT22;6914;53.552;9.908;2022-12-07T06:06:53;0.90;99.90
13684;DHT22;6914;53.552;9.908;2022-12-07T06:09:21;2.90;99.90
13684;DHT22;6914;53.552;9.908;2022-12-07T06:11:49;1.50;99.90
13684;DHT22;6914;53.552;9.908;2022-12-07T06:14:34;1.50;99.90
13684;DHT22;6914;53.552;9.908;2022-12-07T06:17:01;1.20;99.90
13684;DHT22;6914;53.552;9.908;2022-12-07T06:19:28;1.20;99.90
13684;DHT22;6914;53.552;9.908;2022-12-07T06:21:56;1.50;99.90
13684;DHT22;6914;53.552;9.908;2022-12-07T06:24:23;1.40;99.90
13684;DHT22;6914;53.552;9.908;2022-12-07T06:26:50;1.30;99.90
13684;DHT22;6914;53.552;9.908;2022-12-07T06:29:19;1.20;99.90
13684;DHT22;6914;53.552;9.908;2022-12-07T06:31:48;0.70;99.90
13684;DHT22;6914;53.552;9.908;2022-12-07T06:34:18;1.20;99.90
13684;DHT22;6914;53.552;9.908;2022-12-07T06:36:45;1.50;99.90
13684;DHT22;6914;53.552;9.908;2022-12-07T06:39:17;1.20;99.90
13684;DHT22;6914;53.552;9.908;2022-12-07T06:41:44;1.50;99.90
13684;DHT22;6914;53.552;9.908;2022-12-07T06:44:11;1.50;99.90
13684;DHT22;6914;53.552;9.908;2022-12-07T06:46:38;1.20;99.90
13684;DHT22;6914;53.552;9.908;2022-12-07T06:49:06;1.40;99.90
13684;DHT22;6914;53.552;9.908;2022-12-07T06:51:34;1.10;99.90
13684;DHT22;6914;53.552;9.908;2022-12-07T06:54:02;1.20;99.90
13684;DHT22;6914;53.552;9.908;2022-12-07T06:56:28;1.50;99.90
13684;DHT22;6914;53.552;9.908;2022-12-07T06:58:55;1.30;99.90
13684;DHT22;6914;53.552;9.908;2022-12-07T07:01:22;1.70;99.90
13684;DHT22;6914;53.552;9.908;2022-12-07T07:03:51;1.20;99.90
13684;DHT22;6914;53.552;9.908;2022-12-07T07:06:19;1.20;99.90
13684;DHT22;6914;53.552;9.908;2022-12-07T07:08:47;1.90;99.90
13684;DHT22;6914;53.552;9.908;2022-12-07T07:11:14;1.80;99.90
13684;DHT22;6914;53.552;9.908;2022-12-07T07:13:40;0.70;99.90
13684;DHT22;6914;53.552;9.908;2022-12-07T07:16:08;0.50;99.90
13684;DHT22;6914;53.552;9.908;2022-12-07T07:18:36;1.30;99.90
13684;DHT22;6914;53.552;9.908;2022-12-07T07:21:03;1.30;99.90
13684;DHT22;6914;53.552;9.908;2022-12-07T07:23:31;1.50;99.90
13684;DHT22;6914;53.552;9.908;2022-12-07T07:25:58;1.40;99.90
13684;DHT22;6914;53.552;9.908;2022-12-07T07:28:25;-1.50;99.90
13684;DHT22;6914;53.552;9.908;2022-12-07T07:30:52;2.80;99.90
13684;DHT22;6914;53.552;9.908;2022-12-07T07:33:19;0.50;99.90
13684;DHT22;6914;53.552;9.908;2022-12-07T07:35:46;1.00;99.90
13684;DHT22;6914;53.552;9.908;2022-12-07T07:38:12;1.50;99.90
13684;DHT22;6914;53.552;9.908;2022-12-07T07:40:41;2.80;99.90
13684;DHT22;6914;53.552;9.908;2022-12-07T07:43:07;2.00;99.90
13684;DHT22;6914;53.552;9.908;2022-12-07T07:45:34;1.30;99.90
13684;DHT22;6914;53.552;9.908;2022-12-07T07:48:01;0.50;99.90
13684;DHT22;6914;53.552;9.908;2022-12-07T07:50:28;0.90;99.90
13684;DHT22;6914;53.552;9.908;2022-12-07T07:52:56;1.40;99.90
13684;DHT22;6914;53.552;9.908;2022-12-07T07:55:23;0.50;99.90
13684;DHT22;6914;53.552;9.908;2022-12-07T07:57:52;0.80;99.90
13684;DHT22;6914;53.552;9.908;2022-12-07T08:00:19;1.60;99.90
13684;DHT22;6914;53.552;9.908;2022-12-07T08:02:46;1.60;99.90
13684;DHT22;6914;53.552;9.908;2022-12-07T08:05:13;1.70;99.90
13684;DHT22;6914;53.552;9.908;2022-12-07T08:07:40;1.40;99.90
13684;DHT22;6914;53.552;9.908;2022-12-07T08:10:08;1.70;99.90
13684;DHT22;6914;53.552;9.908;2022-12-07T08:12:37;1.60;99.90
13684;DHT22;6914;53.552;9.908;2022-12-07T08:15:26;1.20;99.90
13684;DHT22;6914;53.552;9.908;2022-12-07T08:17:53;1.70;99.90
13684;DHT22;6914;53.552;9.908;2022-12-07T08:20:20;1.50;99.90
13684;DHT22;6914;53.552;9.908;2022-12-07T08:22:47;1.40;99.90
13684;DHT22;6914;53.552;9.908;2022-12-07T08:25:14;1.90;99.90
13684;DHT22;6914;53.552;9.908;2022-12-07T08:27:41;2.80;99.90
13684;DHT22;6914;53.552;9.908;2022-12-07T08:30:10;1.70;99.90
13684;DHT22;6914;53.552;9.908;2022-12-07T08:32:38;2.00;99.90
13684;DHT22;6914;53.552;9.908;2022-12-07T08:35:05;1.90;99.90
13684;DHT22;6914;53.552;9.908;2022-12-07T08:37:33;2.00;99.90
13684;DHT22;6914;53.552;9.908;2022-12-07T08:39:59;1.80;99.90
13684;DHT22;6914;53.552;9.908;2022-12-07T08:42:26;1.10;99.90
13684;DHT22;6914;53.552;9.908;2022-12-07T08:44:55;2.10;99.90
13684;DHT22;6914;53.552;9.908;2022-12-07T08:47:23;2.20;99.90
13684;DHT22;6914;53.552;9.908;2022-12-07T08:49:52;1.90;99.90
13684;DHT22;6914;53.552;9.908;2022-12-07T08:52:20;2.40;99.90
13684;DHT22;6914;53.552;9.908;2022-12-07T08:54:47;2.10;99.90
13684;DHT22;6914;53.552;9.908;2022-12-07T08:57:14;2.40;99.90
13684;DHT22;6914;53.552;9.908;2022-12-07T08:59:41;2.40;99.90
13684;DHT22;6914;53.552;9.908;2022-12-07T09:02:08;2.40;99.90
13684;DHT22;6914;53.552;9.908;2022-12-07T09:04:35;2.00;99.90
13684;DHT22;6914;53.552;9.908;2022-12-07T09:07:04;2.50;99.90
13684;DHT22;6914;53.552;9.908;2022-12-07T09:09:31;2.80;99.90
13684;DHT22;6914;53.552;9.908;2022-12-07T09:12:00;2.50;99.90
13684;DHT22;6914;53.552;9.908;2022-12-07T09:14:27;2.70;99.90
13684;DHT22;6914;53.552;9.908;2022-12-07T09:16:53;3.40;99.90
13684;DHT22;6914;53.552;9.908;2022-12-07T09:19:20;2.70;99.90
13684;DHT22;6914;53.552;9.908;2022-12-07T09:21:47;2.80;99.90
13684;DHT22;6914;53.552;9.908;2022-12-07T09:24:15;2.70;99.90
13684;DHT22;6914;53.552;9.908;2022-12-07T09:26:42;3.30;99.90
13684;DHT22;6914;53.552;9.908;2022-12-07T09:29:09;1.10;99.90
13684;DHT22;6914;53.552;9.908;2022-12-07T09:31:37;3.10;99.90
13684;DHT22;6914;53.552;9.908;2022-12-07T09:34:04;3.10;99.90
13684;DHT22;6914;53.552;9.908;2022-12-07T09:36:31;3.10;99.90
13684;DHT22;6914;53.552;9.908;2022-12-07T09:38:58;3.30;99.90
13684;DHT22;6914;53.552;9.908;2022-12-07T09:41:27;3.10;99.90
13684;DHT22;6914;53.552;9.908;2022-12-07T09:44:02;3.30;99.90
13684;DHT22;6914;53.552;9.908;2022-12-07T09:46:35;3.20;99.90
13684;DHT22;6914;53.552;9.908;2022-12-07T09:49:05;3.40;99.90
13684;DHT22;6914;53.552;9.908;2022-12-07T09:51:36;3.30;99.90
13684;DHT22;6914;53.552;9.908;2022-12-07T09:54:03;2.70;99.90
13684;DHT22;6914;53.552;9.908;2022-12-07T09:56:31;3.50;99.90
13684;DHT22;6914;53.552;9.908;2022-12-07T09:59:00;4.40;99.90
13684;DHT22;6914;53.552;9.908;2022-12-07T10:01:29;3.40;99.90
13684;DHT22;6914;53.552;9.908;2022-12-07T10:04:05;3.60;99.90
13684;DHT22;6914;53.552;9.908;2022-12-07T10:06:34;3.90;99.90
13684;DHT22;6914;53.552;9.908;2022-12-07T10:09:00;3.70;99.90
13684;DHT22;6914;53.552;9.908;2022-12-07T10:11:28;3.70;99.90
13684;DHT22;6914;53.552;9.908;2022-12-07T10:14:11;3.20;99.90
13684;DHT22;6914;53.552;9.908;2022-12-07T10:16:40;3.80;99.90
13684;DHT22;6914;53.552;9.908;2022-12-07T10:19:26;3.80;99.90
13684;DHT22;6914;53.552;9.908;2022-12-07T10:22:04;3.70;99.90
13684;DHT22;6914;53.552;9.908;2022-12-07T10:24:32;3.50;99.90
13684;DHT22;6914;53.552;9.908;2022-12-07T10:26:59;3.60;99.90
13684;DHT22;6914;53.552;9.908;2022-12-07T10:29:31;3.60;99.90
13684;DHT22;6914;53.552;9.908;2022-12-07T10:32:00;3.50;99.90
13684;DHT22;6914;53.552;9.908;2022-12-07T10:34:28;3.50;99.90
13684;DHT22;6914;53.552;9.908;2022-12-07T10:37:14;3.50;99.90
13684;DHT22;6914;53.552;9.908;2022-12-07T10:39:43;3.40;99.90
13684;DHT22;6914;53.552;9.908;2022-12-07T10:42:17;3.50;99.90
13684;DHT22;6914;53.552;9.908;2022-12-07T10:44:46;4.90;99.90
13684;DHT22;6914;53.552;9.908;2022-12-07T10:50:25;3.70;99.90
13684;DHT22;6914;53.552;9.908;2022-12-07T10:56:01;4.10;99.90
13684;DHT22;6914;53.552;9.908;2022-12-07T10:58:46;3.90;99.90
13684;DHT22;6914;53.552;9.908;2022-12-07T11:01:24;3.70;99.90
13684;DHT22;6914;53.552;9.908;2022-12-07T11:04:10;4.30;99.90
13684;DHT22;6914;53.552;9.908;2022-12-07T11:06:50;4.40;99.90
13684;DHT22;6914;53.552;9.908;2022-12-07T11:09:44;4.30;99.90
13684;DHT22;6914;53.552;9.908;2022-12-07T11:12:18;4.60;99.90
13684;DHT22;6914;53.552;9.908;2022-12-07T11:14:54;4.60;99.90
13684;DHT22;6914;53.552;9.908;2022-12-07T11:17:30;4.50;99.90
13684;DHT22;6914;53.552;9.908;2022-12-07T11:20:05;4.60;99.90
13684;DHT22;6914;53.552;9.908;2022-12-07T11:22:47;4.50;99.90
13684;DHT22;6914;53.552;9.908;2022-12-07T11:25:28;4.50;99.90
13684;DHT22;6914;53.552;9.908;2022-12-07T11:28:10;4.30;99.90
13684;DHT22;6914;53.552;9.908;2022-12-07T11:30:54;3.50;99.90
13684;DHT22;6914;53.552;9.908;2022-12-07T11:33:29;4.20;99.90
13684;DHT22;6914;53.552;9.908;2022-12-07T11:36:07;4.20;99.90
13684;DHT22;6914;53.552;9.908;2022-12-07T11:38:44;4.10;99.90
13684;DHT22;6914;53.552;9.908;2022-12-07T11:41:12;4.10;99.90
13684;DHT22;6914;53.552;9.908;2022-12-07T11:43:53;4.10;99.90
13684;DHT22;6914;53.552;9.908;2022-12-07T11:46:23;4.70;99.90
13684;DHT22;6914;53.552;9.908;2022-12-07T11:49:01;3.60;99.90
13684;DHT22;6914;53.552;9.908;2022-12-07T11:51:30;3.70;99.90
13684;DHT22;6914;53.552;9.908;2022-12-07T11:54:03;4.30;99.90
13684;DHT22;6914;53.552;9.908;2022-12-07T11:56:34;4.00;99.90
13684;DHT22;6914;53.552;9.908;2022-12-07T11:59:09;4.10;99.90
13684;DHT22;6914;53.552;9.908;2022-12-07T12:01:47;4.90;99.90
13684;DHT22;6914;53.552;9.908;2022-12-07T12:04:30;4.20;99.90
13684;DHT22;6914;53.552;9.908;2022-12-07T12:06:58;3.10;99.90
13684;DHT22;6914;53.552;9.908;2022-12-07T12:09:28;4.20;99.90
13684;DHT22;6914;53.552;9.908;2022-12-07T12:15:32;4.60;99.90
13684;DHT22;6914;53.552;9.908;2022-12-07T12:21:10;4.60;99.90
13684;DHT22;6914;53.552;9.908;2022-12-07T12:23:42;4.40;99.90
13684;DHT22;6914;53.552;9.908;2022-12-07T12:26:16;4.50;99.90
13684;DHT22;6914;53.552;9.908;2022-12-07T12:28:52;4.50;99.90
13684;DHT22;6914;53.552;9.908;2022-12-07T12:31:33;6.10;99.90
13684;DHT22;6914;53.552;9.908;2022-12-07T12:34:04;4.60;99.90
13684;DHT22;6914;53.552;9.908;2022-12-07T12:36:46;4.90;99.90
13684;DHT22;6914;53.552;9.908;2022-12-07T12:39:14;5.00;99.90
13684;DHT22;6914;53.552;9.908;2022-12-07T12:42:03;5.40;99.90
13684;DHT22;6914;53.552;9.908;2022-12-07T12:45:03;5.70;99.90
13684;DHT22;6914;53.552;9.908;2022-12-07T12:47:53;5.90;99.90
13684;DHT22;6914;53.552;9.908;2022-12-07T12:50:23;6.50;99.90
13684;DHT22;6914;53.552;9.908;2022-12-07T12:52:58;6.30;99.90
13684;DHT22;6914;53.552;9.908;2022-12-07T12:55:59;6.30;99.90
13684;DHT22;6914;53.552;9.908;2022-12-07T12:58:39;5.40;99.90
13684;DHT22;6914;53.552;9.908;2022-12-07T13:08:00;6.00;99.90
13684;DHT22;6914;53.552;9.908;2022-12-07T13:10:44;5.60;99.90
13684;DHT22;6914;53.552;9.908;2022-12-07T13:13:33;7.40;99.90
13684;DHT22;6914;53.552;9.908;2022-12-07T13:25:36;3.40;99.90
13684;DHT22;6914;53.552;9.908;2022-12-07T13:28:14;4.60;99.90
13684;DHT22;6914;53.552;9.908;2022-12-07T13:30:47;5.00;99.90
13684;DHT22;6914;53.552;9.908;2022-12-07T13:33:17;4.90;99.90
13684;DHT22;6914;53.552;9.908;2022-12-07T13:35:45;4.90;99.90
13684;DHT22;6914;53.552;9.908;2022-12-07T13:38:29;5.00;99.90
13684;DHT22;6914;53.552;9.908;2022-12-07T13:41:03;4.80;99.90
13684;DHT22;6914;53.552;9.908;2022-12-07T13:43:30;4.80;99.90
13684;DHT22;6914;53.552;9.908;2022-12-07T13:45:58;4.40;99.90
13684;DHT22;6914;53.552;9.908;2022-12-07T13:48:31;4.60;99.90
13684;DHT22;6914;53.552;9.908;2022-12-07T13:51:00;4.60;99.90
13684;DHT22;6914;53.552;9.908;2022-12-07T13:53:28;4.50;99.90
13684;DHT22;6914;53.552;9.908;2022-12-07T13:55:56;4.50;99.90
13684;DHT22;6914;53.552;9.908;2022-12-07T13:58:25;4.50;99.90
13684;DHT22;6914;53.552;9.908;2022-12-07T14:00:53;4.40;99.90
13684;DHT22;6914;53.552;9.908;2022-12-07T14:03:34;5.90;99.90
13684;DHT22;6914;53.552;9.908;2022-12-07T14:06:23;4.40;99.90
13684;DHT22;6914;53.552;9.908;2022-12-07T14:09:07;4.30;99.90
13684;DHT22;6914;53.552;9.908;2022-12-07T14:11:34;4.30;99.90
13684;DHT22;6914;53.552;9.908;2022-12-07T14:14:03;4.30;99.90
13684;DHT22;6914;53.552;9.908;2022-12-07T14:16:33;4.30;99.90
13684;DHT22;6914;53.552;9.908;2022-12-07T14:19:06;4.20;99.90
13684;DHT22;6914;53.552;9.908;2022-12-07T14:22:06;4.20;99.90
13684;DHT22;6914;53.552;9.908;2022-12-07T14:24:41;2.30;99.90
13684;DHT22;6914;53.552;9.908;2022-12-07T14:27:17;4.10;99.90
13684;DHT22;6914;53.552;9.908;2022-12-07T14:29:46;3.90;99.90
13684;DHT22;6914;53.552;9.908;2022-12-07T14:32:20;3.70;99.90
13684;DHT22;6914;53.552;9.908;2022-12-07T14:34:56;3.90;99.90
13684;DHT22;6914;53.552;9.908;2022-12-07T14:37:24;3.90;99.90
13684;DHT22;6914;53.552;9.908;2022-12-07T14:39:54;3.80;99.90
13684;DHT22;6914;53.552;9.908;2022-12-07T14:42:22;3.70;99.90
13684;DHT22;6914;53.552;9.908;2022-12-07T14:44:52;3.50;99.90
13684;DHT22;6914;53.552;9.908;2022-12-07T14:47:19;3.70;99.90
13684;DHT22;6914;53.552;9.908;2022-12-07T14:49:46;3.40;99.90
13684;DHT22;6914;53.552;9.908;2022-12-07T14:52:16;3.40;99.90
13684;DHT22;6914;53.552;9.908;2022-12-07T14:54:44;3.30;99.90
13684;DHT22;6914;53.552;9.908;2022-12-07T14:57:11;3.30;99.90
13684;DHT22;6914;53.552;9.908;2022-12-07T14:59:39;6.00;99.90
13684;DHT22;6914;53.552;9.908;2022-12-07T15:02:10;3.10;99.90
13684;DHT22;6914;53.552;9.908;2022-12-07T15:04:38;3.00;99.90
13684;DHT22;6914;53.552;9.908;2022-12-07T15:07:09;2.80;99.90
13684;DHT22;6914;53.552;9.908;2022-12-07T15:09:37;2.70;99.90
13684;DHT22;6914;53.552;9.908;2022-12-07T15:12:04;4.20;99.90
13684;DHT22;6914;53.552;9.908;2022-12-07T15:14:31;2.80;99.90
13684;DHT22;6914;53.552;9.908;2022-12-07T15:16:59;3.50;99.90
13684;DHT22;6914;53.552;9.908;2022-12-07T15:19:27;2.70;99.90
13684;DHT22;6914;53.552;9.908;2022-12-07T15:21:54;2.60;99.90
13684;DHT22;6914;53.552;9.908;2022-12-07T15:24:21;2.00;99.90
13684;DHT22;6914;53.552;9.908;2022-12-07T15:26:58;2.70;99.90
13684;DHT22;6914;53.552;9.908;2022-12-07T15:29:25;2.70;99.90
13684;DHT22;6914;53.552;9.908;2022-12-07T15:31:56;2.70;99.90
13684;DHT22;6914;53.552;9.908;2022-12-07T15:34:24;0.40;99.90
13684;DHT22;6914;53.552;9.908;2022-12-07T15:36:54;2.60;99.90
13684;DHT22;6914;53.552;9.908;2022-12-07T15:39:21;2.70;99.90
13684;DHT22;6914;53.552;9.908;2022-12-07T15:41:48;3.80;99.90
13684;DHT22;6914;53.552;9.908;2022-12-07T15:44:22;2.60;99.90
13684;DHT22;6914;53.552;9.908;2022-12-07T15:47:06;1.80;99.90
13684;DHT22;6914;53.552;9.908;2022-12-07T15:49:33;1.90;99.90
13684;DHT22;6914;53.552;9.908;2022-12-07T15:52:01;2.30;99.90
13684;DHT22;6914;53.552;9.908;2022-12-07T15:54:29;1.20;99.90
13684;DHT22;6914;53.552;9.908;2022-12-07T15:56:57;1.70;99.90
13684;DHT22;6914;53.552;9.908;2022-12-07T15:59:26;2.30;99.90
13684;DHT22;6914;53.552;9.908;2022-12-07T16:01:54;2.20;99.90
13684;DHT22;6914;53.552;9.908;2022-12-07T16:04:21;0.10;99.90
13684;DHT22;6914;53.552;9.908;2022-12-07T16:06:48;2.10;99.90
13684;DHT22;6914;53.552;9.908;2022-12-07T16:09:17;2.00;99.90
13684;DHT22;6914;53.552;9.908;2022-12-07T16:11:45;1.50;99.90
13684;DHT22;6914;53.552;9.908;2022-12-07T16:14:13;2.10;99.90
13684;DHT22;6914;53.552;9.908;2022-12-07T16:16:40;2.10;99.90
13684;DHT22;6914;53.552;9.908;2022-12-07T16:19:07;2.70;99.90
13684;DHT22;6914;53.552;9.908;2022-12-07T16:21:36;1.70;99.90
13684;DHT22;6914;53.552;9.908;2022-12-07T16:24:04;2.10;99.90
13684;DHT22;6914;53.552;9.908;2022-12-07T16:26:33;3.50;99.90
13684;DHT22;6914;53.552;9.908;2022-12-07T16:29:00;2.10;99.90
13684;DHT22;6914;53.552;9.908;2022-12-07T16:31:28;2.00;99.90
13684;DHT22;6914;53.552;9.908;2022-12-07T16:33:57;2.80;99.90
13684;DHT22;6914;53.552;9.908;2022-12-07T16:36:24;2.00;99.90
13684;DHT22;6914;53.552;9.908;2022-12-07T16:38:53;1.60;99.90
13684;DHT22;6914;53.552;9.908;2022-12-07T16:41:20;-0.80;99.90
13684;DHT22;6914;53.552;9.908;2022-12-07T16:43:49;3.80;99.90
13684;DHT22;6914;53.552;9.908;2022-12-07T16:46:16;3.20;99.90
13684;DHT22;6914;53.552;9.908;2022-12-07T16:48:43;2.40;99.90
13684;DHT22;6914;53.552;9.908;2022-12-07T16:51:11;1.70;99.90
13684;DHT22;6914;53.552;9.908;2022-12-07T16:53:40;2.00;99.90